Time;durP1;ratioP1;P1;durP2;ratioP2;P2;SDS_P1;SDS_P2;PMS_P1;PMS_P2;Temp;Humidity;BMP_temperature;BMP_pressure;BME280_temperature;BME280_humidity;BME280_pressure;Samples;Min_cycle;Max_cycle;Signal;HPM_P1;HPM_P2
2023/09/07 00:00:41;;;;;;;15.98;13.35;;;;;;;16.17;100.00;102062.94;5030100;28;20426;-80
2023/09/07 00:03:07;;;;;;;15.88;12.05;;;;;;;16.14;100.00;102060.56;5030314;28;20072;-80
2023/09/07 00:05:32;;;;;;;19.67;13.48;;;;;;;16.13;100.00;102047.28;5031453;28;20054;-80
2023/09/07 00:07:57;;;;;;;18.42;13.10;;;;;;;16.12;100.00;102050.94;5031692;28;20032;-80
2023/09/07 00:10:25;;;;;;;19.67;13.95;;;;;;;16.09;100.00;102046.72;5031277;28;20121;-80
2023/09/07 00:12:50;;;;;;;16.00;12.45;;;;;;;16.08;100.00;102052.22;5030934;28;20422;-80
2023/09/07 00:15:16;;;;;;;19.33;13.60;;;;;;;16.04;100.00;102044.47;5030689;28;20072;-80
2023/09/07 00:17:41;;;;;;;16.75;11.95;;;;;;;16.02;100.00;102043.78;5030622;28;20477;-80
2023/09/07 00:20:10;;;;;;;15.98;12.68;;;;;;;16.00;100.00;102045.78;5030682;28;20063;-80
2023/09/07 00:22:36;;;;;;;15.43;13.73;;;;;;;16.00;100.00;102047.59;5029701;28;20037;-79
2023/09/07 00:25:01;;;;;;;18.85;13.25;;;;;;;15.98;100.00;102046.91;5030620;28;20041;-80
2023/09/07 00:27:27;;;;;;;20.23;14.18;;;;;;;15.96;100.00;102046.19;5029474;28;20034;-80
2023/09/07 00:29:52;;;;;;;16.02;13.10;;;;;;;15.94;100.00;102040.97;5030971;28;20038;-81
2023/09/07 00:32:17;;;;;;;17.25;13.05;;;;;;;15.91;100.00;102049.31;5030850;28;20076;-80
2023/09/07 00:34:43;;;;;;;15.43;12.13;;;;;;;15.89;100.00;102048.59;5030593;28;20037;-80
2023/09/07 00:37:08;;;;;;;16.38;13.10;;;;;;;15.89;100.00;102058.50;5030599;28;20026;-80
2023/09/07 00:39:33;;;;;;;14.13;10.32;;;;;;;15.85;100.00;102049.88;5030738;28;20045;-80
2023/09/07 00:41:59;;;;;;;16.25;12.63;;;;;;;15.80;100.00;102046.78;5030564;28;20037;-81
2023/09/07 00:44:24;;;;;;;22.63;12.73;;;;;;;15.79;100.00;102050.47;5030721;28;20029;-80
2023/09/07 00:46:50;;;;;;;14.13;11.75;;;;;;;15.73;100.00;102043.78;5029078;28;20041;-81
2023/09/07 00:49:15;;;;;;;16.30;12.35;;;;;;;15.72;100.00;102046.63;5029021;28;20474;-80
2023/09/07 00:51:41;;;;;;;17.48;13.25;;;;;;;15.67;100.00;102042.56;5029423;28;20037;-80
2023/09/07 00:54:07;;;;;;;15.00;13.35;;;;;;;15.67;100.00;102044.38;5029080;28;20057;-80
2023/09/07 00:56:32;;;;;;;12.60;11.25;;;;;;;15.63;100.00;102041.16;5030617;28;20057;-80
2023/09/07 00:59:01;;;;;;;19.27;14.38;;;;;;;15.60;100.00;102038.75;5030516;28;20059;-80
2023/09/07 01:01:26;;;;;;;15.57;11.65;;;;;;;15.56;100.00;102037.34;5029486;28;20084;-80
2023/09/07 01:03:52;;;;;;;14.27;11.98;;;;;;;15.52;100.00;102039.47;5028860;28;20041;-81
2023/09/07 01:06:20;;;;;;;17.02;11.40;;;;;;;15.50;100.00;102035.22;5030751;28;20057;-80
2023/09/07 01:08:49;;;;;;;17.48;12.30;;;;;;;15.46;100.00;102031.13;5030661;28;20045;-80
2023/09/07 01:11:16;;;;;;;15.45;12.15;;;;;;;15.42;100.00;102030.56;5029374;28;20380;-80
2023/09/07 01:13:44;;;;;;;16.30;13.25;;;;;;;15.40;100.00;102026.34;5032501;28;20044;-80
2023/09/07 01:16:11;;;;;;;15.90;11.38;;;;;;;15.37;100.00;102030.13;5032921;28;20040;-80
2023/09/07 01:18:38;;;;;;;23.42;13.80;;;;;;;15.32;100.00;102029.72;5034507;28;20053;-80
2023/09/07 01:21:10;;;;;;;17.65;12.60;;;;;;;15.30;100.00;102034.38;5032775;28;20103;-80
2023/09/07 01:23:36;;;;;;;17.23;12.68;;;;;;;15.26;100.00;102030.31;5034490;28;20045;-80
2023/09/07 01:26:03;;;;;;;15.27;11.85;;;;;;;15.23;100.00;102027.91;5034118;28;20420;-80
2023/09/07 01:28:28;;;;;;;17.67;11.90;;;;;;;15.18;100.00;102025.63;5034292;28;20034;-80
2023/09/07 01:30:54;;;;;;;19.10;13.50;;;;;;;15.15;100.00;102024.09;5034812;28;20116;-81
2023/09/07 01:33:19;;;;;;;15.25;11.50;;;;;;;15.13;100.00;102027.88;5016741;28;20037;-80
2023/09/07 01:35:46;;;;;;;14.27;12.07;;;;;;;15.09;100.00;102018.41;5034419;28;20030;-80
2023/09/07 01:38:11;;;;;;;15.68;12.38;;;;;;;15.09;100.00;102021.97;5034308;28;20072;-79
2023/09/07 01:40:36;;;;;;;17.95;13.10;;;;;;;15.08;100.00;102024.78;5034605;28;20108;-80
2023/09/07 01:43:02;;;;;;;17.58;12.68;;;;;;;15.04;100.00;102018.84;5032482;28;20551;-80
2023/09/07 01:45:27;;;;;;;15.35;11.50;;;;;;;15.03;100.00;102022.50;5016331;28;20495;-81
2023/09/07 01:47:53;;;;;;;15.77;11.57;;;;;;;15.01;100.00;102021.81;5033872;28;20433;-80
2023/09/07 01:50:18;;;;;;;15.05;10.73;;;;;;;14.98;100.00;102027.44;5034219;28;20087;-80
2023/09/07 01:52:47;;;;;;;13.43;11.02;;;;;;;14.95;100.00;102020.53;5032186;28;20061;-79
2023/09/07 01:55:12;;;;;;;16.30;12.40;;;;;;;14.94;100.00;102023.34;5033941;28;20026;-80
2023/09/07 01:57:38;;;;;;;13.43;10.05;;;;;;;14.91;100.00;102018.25;5034091;28;20029;-79
2023/09/07 02:00:05;;;;;;;14.52;11.18;;;;;;;14.90;100.00;102027.28;5032557;28;20040;-80
2023/09/07 02:02:30;;;;;;;15.32;12.57;;;;;;;14.87;100.00;102019.53;5034384;28;20032;-80
2023/09/07 02:04:56;;;;;;;14.13;12.00;;;;;;;14.85;100.00;102016.97;5032159;28;20136;-84
2023/09/07 02:07:21;;;;;;;14.93;11.45;;;;;;;14.83;100.00;102024.31;5016578;28;20033;-80
2023/09/07 02:09:46;;;;;;;15.45;11.90;;;;;;;14.81;100.00;102024.47;5032273;28;20033;-80
2023/09/07 02:12:12;;;;;;;15.70;12.27;;;;;;;14.80;100.00;102021.91;5033843;28;20025;-80
2023/09/07 02:14:37;;;;;;;13.85;11.60;;;;;;;14.79;100.00;102025.56;5033614;28;20034;-80
2023/09/07 02:17:03;;;;;;;12.73;10.45;;;;;;;14.76;100.00;102031.22;5031907;28;20029;-81
2023/09/07 02:19:28;;;;;;;16.17;12.02;;;;;;;14.74;100.00;102028.66;5033585;28;20026;-80
2023/09/07 02:21:54;;;;;;;13.13;10.02;;;;;;;14.71;100.00;102022.75;5033257;28;20052;-80
2023/09/07 02:24:19;;;;;;;16.42;12.00;;;;;;;14.71;100.00;102020.06;5031905;28;20339;-80
2023/09/07 02:26:45;;;;;;;20.80;14.15;;;;;;;14.70;100.00;102019.22;5033852;28;20087;-80
2023/09/07 02:29:13;;;;;;;12.15;10.63;;;;;;;14.68;100.00;102026.53;5033348;28;20454;-79
2023/09/07 02:31:40;;;;;;;20.00;13.40;;;;;;;14.68;100.00;102021.19;5032142;28;20124;-80
2023/09/07 02:34:05;;;;;;;15.38;12.02;;;;;;;14.66;100.00;102019.63;5032025;28;20029;-80
2023/09/07 02:36:31;;;;;;;14.93;11.60;;;;;;;14.64;100.00;102022.44;5034007;28;20034;-80
2023/09/07 02:38:56;;;;;;;16.40;14.05;;;;;;;14.63;100.00;102023.44;5034201;28;20033;-80
2023/09/07 02:41:22;;;;;;;13.68;10.52;;;;;;;14.59;100.00;102022.81;5032705;28;20029;-80
2023/09/07 02:43:47;;;;;;;15.20;11.50;;;;;;;14.58;100.00;102029.16;5033441;28;20497;-80
2023/09/07 02:46:13;;;;;;;14.20;10.25;;;;;;;14.56;100.00;102028.44;5031814;28;20099;-80
2023/09/07 02:48:38;;;;;;;17.63;14.45;;;;;;;14.56;100.00;102031.13;5033615;28;20568;-80
2023/09/07 02:51:03;;;;;;;15.57;12.07;;;;;;;14.56;100.00;102033.81;5034020;28;20128;-81
2023/09/07 02:53:29;;;;;;;19.02;14.07;;;;;;;14.56;100.00;102028.44;5035631;28;20112;-80
2023/09/07 02:55:55;;;;;;;15.50;13.10;;;;;;;14.55;100.00;102032.09;5033689;28;20040;-80
2023/09/07 02:58:22;;;;;;;18.48;13.45;;;;;;;14.52;100.00;102027.03;5033410;28;20536;-81
2023/09/07 03:00:48;;;;;;;24.92;15.60;;;;;;;14.53;100.00;102031.41;5032979;28;20050;-80
2023/09/07 03:03:14;;;;;;;24.25;15.80;;;;;;;14.54;100.00;102027.75;5032890;28;20338;-80
2023/09/07 03:05:40;;;;;;;22.08;14.57;;;;;;;14.53;100.00;102031.41;5014684;28;20474;-80
2023/09/07 03:08:06;;;;;;;21.50;16.08;;;;;;;14.55;100.00;102031.25;5032274;28;20029;-81
2023/09/07 03:10:32;;;;;;;18.50;13.93;;;;;;;14.54;100.00;102035.78;5031013;28;20079;-81
2023/09/07 03:12:57;;;;;;;21.90;14.85;;;;;;;14.52;100.00;102042.25;5032550;28;20037;-80
2023/09/07 03:15:23;;;;;;;15.20;11.73;;;;;;;14.50;100.00;102041.56;5032433;28;20064;-80
2023/09/07 03:17:48;;;;;;;18.63;14.05;;;;;;;14.46;100.00;102036.47;5032398;28;20091;-80
2023/09/07 03:20:14;;;;;;;20.92;16.40;;;;;;;14.48;100.00;102035.47;5032384;28;20300;-81
2023/09/07 03:22:43;;;;;;;17.55;13.38;;;;;;;14.45;100.00;102039.25;5032620;28;20049;-81
2023/09/07 03:25:10;;;;;;;19.38;14.77;;;;;;;14.41;100.00;102027.97;5032341;28;20029;-81
2023/09/07 03:27:36;;;;;;;19.45;13.32;;;;;;;14.41;100.00;102027.13;5030941;28;20124;-80
2023/09/07 03:30:02;;;;;;;21.33;14.43;;;;;;;14.42;100.00;102023.47;5032561;28;20078;-80
2023/09/07 03:32:31;;;;;;;17.45;13.70;;;;;;;14.40;100.00;102028.13;5030867;28;20104;-80
2023/09/07 03:34:57;;;;;;;18.77;13.93;;;;;;;14.34;100.00;102021.47;5031076;28;20038;-80
2023/09/07 03:37:22;;;;;;;23.25;16.00;;;;;;;14.35;100.00;102025.84;5030480;28;20107;-80
2023/09/07 03:39:48;;;;;;;20.40;15.82;;;;;;;14.34;100.00;102021.47;5030947;28;20030;-80
2023/09/07 03:42:13;;;;;;;21.20;15.32;;;;;;;14.34;100.00;102024.13;5031650;28;20049;-80
2023/09/07 03:44:39;;;;;;;16.92;13.55;;;;;;;14.32;100.00;102025.28;5032821;28;20078;-81
2023/09/07 03:47:05;;;;;;;19.20;13.15;;;;;;;14.28;100.00;102030.03;5031899;28;20033;-80
2023/09/07 03:49:30;;;;;;;19.48;14.45;;;;;;;14.27;100.00;102036.38;5032224;28;20308;-80
2023/09/07 03:51:56;;;;;;;26.60;17.48;;;;;;;14.26;100.00;102029.34;5032067;28;20025;-80
2023/09/07 03:54:21;;;;;;;21.70;14.68;;;;;;;14.25;100.00;102041.84;5031823;28;20029;-80
2023/09/07 03:56:46;;;;;;;17.83;13.43;;;;;;;14.21;100.00;102040.44;5030685;28;20400;-80
2023/09/07 03:59:12;;;;;;;19.65;14.45;;;;;;;14.23;100.00;102043.00;5031833;28;20029;-80
2023/09/07 04:01:37;;;;;;;17.65;13.52;;;;;;;14.21;100.00;102034.22;5030151;28;20079;-80
2023/09/07 04:04:03;;;;;;;24.35;16.02;;;;;;;14.19;100.00;102038.88;5032389;28;20044;-81
2023/09/07 04:06:28;;;;;;;24.02;14.80;;;;;;;14.16;100.00;102039.16;5031861;28;20049;-80
2023/09/07 04:08:53;;;;;;;18.13;14.02;;;;;;;14.14;100.00;102043.75;5032044;28;20414;-80
2023/09/07 04:11:19;;;;;;;18.98;14.55;;;;;;;14.10;100.00;102041.34;5031641;28;20053;-80
2023/09/07 04:13:44;;;;;;;18.55;12.13;;;;;;;14.06;100.00;102034.59;5031201;28;20050;-80
2023/09/07 04:16:10;;;;;;;21.75;14.73;;;;;;;14.05;100.00;102040.09;5031517;28;20474;-80
2023/09/07 04:18:35;;;;;;;22.77;16.70;;;;;;;14.01;100.00;102038.66;5015082;28;20120;-80
2023/09/07 04:21:08;;;;;;;16.73;12.80;;;;;;;13.98;100.00;102038.91;5031447;28;20075;-81
2023/09/07 04:23:35;;;;;;;17.20;11.88;;;;;;;13.96;100.00;102043.53;5030998;28;20056;-81
2023/09/07 04:26:11;;;;;;;18.13;13.90;;;;;;;13.93;100.00;102037.47;5031045;28;20037;-80
2023/09/07 04:28:37;;;;;;;17.85;12.93;;;;;;;13.92;100.00;102043.78;5030897;28;20037;-80
2023/09/07 04:31:03;;;;;;;15.57;10.85;;;;;;;13.88;100.00;102042.38;5030972;28;20036;-80
2023/09/07 04:33:33;;;;;;;15.32;10.50;;;;;;;13.85;100.00;102036.44;5030581;28;20029;-80
2023/09/07 04:36:12;;;;;;;13.18;10.63;;;;;;;13.83;100.00;102044.59;5029906;28;20049;-80
2023/09/07 04:38:38;;;;;;;17.35;14.27;;;;;;;13.84;100.00;102040.06;5031466;28;20064;-81
2023/09/07 04:41:13;;;;;;;16.63;12.50;;;;;;;13.81;100.00;102043.88;5031010;28;20327;-80
2023/09/07 04:43:42;;;;;;;18.45;14.57;;;;;;;13.81;100.00;102045.69;5029494;28;20025;-80
2023/09/07 04:46:08;;;;;;;17.10;11.68;;;;;;;13.77;100.00;102045.13;5031788;28;20113;-80
2023/09/07 04:48:34;;;;;;;15.40;11.43;;;;;;;13.75;100.00;102047.91;5029627;28;20121;-79
2023/09/07 04:51:01;;;;;;;15.82;11.48;;;;;;;13.72;100.00;102048.19;5029527;28;20091;-80
2023/09/07 04:53:31;;;;;;;21.52;14.63;;;;;;;13.71;100.00;102054.50;5030935;28;20074;-79
2023/09/07 04:55:57;;;;;;;17.13;13.70;;;;;;;13.72;100.00;102055.38;5031375;28;20037;-80
2023/09/07 04:58:23;;;;;;;24.13;15.45;;;;;;;13.70;100.00;102051.97;5030585;28;20268;-80
2023/09/07 05:00:48;;;;;;;18.90;14.02;;;;;;;13.67;100.00;102063.75;5030367;28;20465;-80
2023/09/07 05:03:14;;;;;;;15.52;11.25;;;;;;;13.63;100.00;102057.00;5029101;28;20033;-79
2023/09/07 05:05:39;;;;;;;17.65;12.90;;;;;;;13.63;100.00;102064.16;5029886;28;20061;-80
2023/09/07 05:08:05;;;;;;;21.17;14.52;;;;;;;13.63;100.00;102061.47;5028939;28;20109;-80
2023/09/07 05:10:33;;;;;;;15.50;12.93;;;;;;;13.62;100.00;102065.97;5030644;28;20056;-80
2023/09/07 05:12:59;;;;;;;26.85;18.73;;;;;;;13.62;100.00;102068.66;5029884;28;20517;-79
2023/09/07 05:15:24;;;;;;;25.55;16.58;;;;;;;13.62;100.00;102067.81;5029664;28;20029;-80
2023/09/07 05:17:50;;;;;;;23.02;17.27;;;;;;;13.61;100.00;102069.63;5028653;28;20056;-79
2023/09/07 05:20:15;;;;;;;19.20;13.73;;;;;;;13.60;100.00;102067.09;5030146;28;20034;-79
2023/09/07 05:22:41;;;;;;;19.23;13.93;;;;;;;13.59;100.00;102068.91;5030180;28;20113;-79
2023/09/07 05:25:07;;;;;;;18.17;14.27;;;;;;;13.57;100.00;102071.72;5030133;28;20034;-81
2023/09/07 05:27:34;;;;;;;19.75;14.40;;;;;;;13.59;100.00;102068.91;5028546;28;20490;-78
2023/09/07 05:30:00;;;;;;;22.25;14.88;;;;;;;13.60;100.00;102059.06;5030384;28;20081;-80
2023/09/07 05:32:25;;;;;;;24.05;16.52;;;;;;;13.62;100.00;102071.34;5029909;28;20049;-80
2023/09/07 05:34:50;;;;;;;22.65;14.90;;;;;;;13.63;100.00;102074.84;5030133;28;20217;-79
2023/09/07 05:37:16;;;;;;;20.92;14.50;;;;;;;13.65;100.00;102073.75;5030230;28;20429;-79
2023/09/07 05:39:41;;;;;;;19.98;14.57;;;;;;;13.69;100.00;102069.84;5028811;28;20094;-79
2023/09/07 05:42:06;;;;;;;20.40;14.18;;;;;;;13.73;100.00;102079.31;5030516;28;20030;-79
2023/09/07 05:44:32;;;;;;;19.23;13.55;;;;;;;13.75;100.00;102077.34;5029501;28;20041;-79
2023/09/07 05:46:58;;;;;;;22.40;15.00;;;;;;;13.77;100.00;102071.03;5030115;28;20410;-78
2023/09/07 05:49:24;;;;;;;26.73;17.92;;;;;;;13.80;100.00;102070.75;5029025;28;20053;-89
2023/09/07 05:51:49;;;;;;;23.90;15.75;;;;;;;13.83;100.00;102078.53;5028567;28;20049;-80
2023/09/07 05:54:14;;;;;;;29.05;19.20;;;;;;;13.89;100.00;102073.50;5029956;28;20083;-80
2023/09/07 05:56:40;;;;;;;25.95;17.85;;;;;;;13.92;100.00;102077.75;5029766;28;20072;-79
2023/09/07 05:59:05;;;;;;;24.95;16.35;;;;;;;13.97;100.00;102080.03;5029377;28;20041;-79
2023/09/07 06:01:31;;;;;;;26.40;18.55;;;;;;;14.01;100.00;102079.63;5033714;28;20045;-79
2023/09/07 06:03:57;;;;;;;29.77;19.10;;;;;;;14.08;100.00;102079.97;5033499;28;20473;-80
2023/09/07 06:06:22;;;;;;;38.28;21.70;;;;;;;14.16;100.00;102081.97;5031587;28;20133;-81
2023/09/07 06:08:48;;;;;;;45.67;31.58;;;;;;;14.22;100.00;102074.25;5015975;28;20477;-77
2023/09/07 06:11:13;;;;;;;41.90;25.70;;;;;;;14.30;100.00;102078.94;5033714;28;20462;-79
2023/09/07 06:13:38;;;;;;;33.78;22.13;;;;;;;14.35;100.00;102082.06;5033046;28;20118;-79
2023/09/07 06:16:04;;;;;;;29.05;20.58;;;;;;;14.41;100.00;102092.25;5033691;28;20085;-77
2023/09/07 06:18:29;;;;;;;31.55;20.20;;;;;;;14.50;100.00;102097.78;5031327;28;20029;-78
2023/09/07 06:20:55;;;;;;;29.48;20.25;;;;;;;14.56;100.00;102100.75;5033403;28;20111;-79
2023/09/07 06:23:20;;;;;;;28.17;18.63;;;;;;;14.62;100.00;102100.25;5033329;28;20037;-78
2023/09/07 06:25:45;;;;;;;34.17;20.45;;;;;;;14.69;100.00;102094.34;5033185;28;20065;-78
2023/09/07 06:28:11;;;;;;;32.60;21.30;;;;;;;14.76;100.00;102096.38;5031584;28;20040;-78
2023/09/07 06:30:36;;;;;;;35.90;21.67;;;;;;;14.85;100.00;102102.72;5031514;28;20037;-78
2023/09/07 06:33:02;;;;;;;36.72;21.70;;;;;;;14.92;100.00;102106.56;5033077;28;20346;-79
2023/09/07 06:35:27;;;;;;;42.40;27.33;;;;;;;15.02;100.00;102105.72;5033426;28;20025;-78
2023/09/07 06:37:52;;;;;;;45.88;24.80;;;;;;;15.12;100.00;102102.09;5033222;28;20048;-78
2023/09/07 06:40:18;;;;;;;34.50;22.83;;;;;;;15.22;100.00;102102.09;5031551;28;20094;-77
2023/09/07 06:42:44;;;;;;;37.50;23.40;;;;;;;15.32;100.00;102102.97;5032623;28;20435;-79
2023/09/07 06:45:10;;;;;;;34.47;21.40;;;;;;;15.44;100.00;102100.16;5032968;28;20466;-78
2023/09/07 06:47:35;;;;;;;29.92;20.00;;;;;;;15.54;100.00;102108.19;5031371;28;20049;-78
2023/09/07 06:50:01;;;;;;;30.85;21.17;;;;;;;15.63;100.00;102112.72;5032988;28;20106;-77
2023/09/07 06:52:27;;;;;;;33.03;21.40;;;;;;;15.74;100.00;102103.69;5032796;28;20037;-79
2023/09/07 06:54:56;;;;;;;33.13;21.13;;;;;;;15.85;100.00;102103.56;5032406;28;20112;-79
2023/09/07 06:57:21;;;;;;;28.85;19.27;;;;;;;15.92;100.00;102110.03;5031403;28;20063;-78
2023/09/07 06:59:50;;;;;;;30.38;19.08;;;;;;;15.98;100.00;102096.06;5033295;28;20101;-77
2023/09/07 07:02:15;;;;;;;28.05;19.15;;;;;;;16.09;100.00;102095.03;5034846;28;20120;-77
2023/09/07 07:04:43;;;;;;;25.75;18.63;;;;;;;16.22;100.00;102100.09;5036267;28;20080;-79
2023/09/07 07:07:09;;;;;;;27.23;18.27;;;;;;;16.32;100.00;102106.28;5031460;28;20047;-77
2023/09/07 07:09:34;;;;;;;24.00;17.73;;;;;;;16.44;100.00;102106.13;5033666;28;20025;-79
2023/09/07 07:12:01;;;;;;;27.27;16.95;;;;;;;16.53;100.00;102110.59;5031487;28;20037;-77
2023/09/07 07:14:26;;;;;;;21.58;16.45;;;;;;;16.62;100.00;102109.72;5030966;28;20427;-77
2023/09/07 07:16:52;;;;;;;25.25;16.13;;;;;;;16.69;100.00;102102.75;5032043;28;20048;-77
2023/09/07 07:19:17;;;;;;;21.50;14.88;;;;;;;16.79;100.00;102100.00;5032666;28;20033;-77
2023/09/07 07:21:42;;;;;;;26.58;15.98;;;;;;;16.88;100.00;102103.69;5032268;28;20113;-77
2023/09/07 07:24:08;;;;;;;21.35;15.35;;;;;;;16.95;100.00;102096.72;5031794;28;20434;-77
2023/09/07 07:26:34;;;;;;;20.10;15.27;;;;;;;17.04;100.00;102095.78;5031941;28;20030;-77
2023/09/07 07:28:59;;;;;;;21.10;16.02;;;;;;;17.15;100.00;102088.50;5031367;28;20515;-78
2023/09/07 07:31:25;;;;;;;18.63;15.23;;;;;;;17.22;100.00;102093.13;5030520;28;20107;-78
2023/09/07 07:33:50;;;;;;;18.40;14.43;;;;;;;17.30;100.00;102095.03;5031780;28;20033;-78
2023/09/07 07:36:16;;;;;;;20.58;15.15;;;;;;;17.41;100.00;102086.75;5029827;28;20026;-78
2023/09/07 07:38:41;;;;;;;17.83;14.38;;;;;;;17.50;100.00;102085.00;5030389;28;20053;-79
2023/09/07 07:41:07;;;;;;;18.60;14.48;;;;;;;17.61;100.00;102087.44;5031461;28;20037;-79
2023/09/07 07:43:33;;;;;;;20.23;13.70;;;;;;;17.76;100.00;102078.81;5031655;28;20030;-79
2023/09/07 07:45:59;;;;;;;21.52;13.70;;;;;;;17.90;100.00;102080.97;5030323;28;20450;-79
2023/09/07 07:48:24;;;;;;;22.60;13.30;;;;;;;18.05;100.00;102072.31;5031266;28;20044;-79
2023/09/07 07:50:50;;;;;;;19.88;12.40;;;;;;;18.20;100.00;102081.50;5031691;28;20511;-79
2023/09/07 07:53:15;;;;;;;20.23;13.10;;;;;;;18.36;100.00;102077.19;5031602;28;20156;-78
2023/09/07 07:55:41;;;;;;;19.65;12.32;;;;;;;18.51;100.00;102078.28;5031168;28;20057;-78
2023/09/07 07:58:10;;;;;;;16.17;11.45;;;;;;;18.68;100.00;102068.44;5031368;28;20033;-78
2023/09/07 08:00:37;;;;;;;17.15;10.90;;;;;;;18.88;100.00;102063.63;5031573;28;20029;-77
2023/09/07 08:03:03;;;;;;;13.63;10.63;;;;;;;19.03;100.00;102063.84;5031037;28;20037;-78
2023/09/07 08:05:29;;;;;;;15.50;11.20;;;;;;;19.21;100.00;102063.69;5031088;28;20450;-78
2023/09/07 08:07:55;;;;;;;16.35;11.02;;;;;;;19.41;100.00;102063.38;5031095;28;20116;-78
2023/09/07 08:10:21;;;;;;;15.68;10.75;;;;;;;19.73;100.00;102060.69;5031032;28;20040;-78
2023/09/07 08:12:46;;;;;;;13.75;10.07;;;;;;;20.35;100.00;102058.41;5028906;28;20033;-78
2023/09/07 08:15:12;;;;;;;19.58;10.15;;;;;;;20.89;100.00;102065.78;5030791;28;20192;-78
2023/09/07 08:17:37;;;;;;;11.80;9.27;;;;;;;21.31;100.00;102057.19;5030821;28;20045;-78
2023/09/07 08:20:03;;;;;;;16.48;9.98;;;;;;;21.61;100.00;102061.91;5012785;28;20396;-82
2023/09/07 08:22:28;;;;;;;12.95;9.38;;;;;;;21.84;100.00;102059.16;5030719;28;20029;-78
2023/09/07 08:24:55;;;;;;;15.65;9.30;;;;;;;22.03;100.00;102060.47;5030557;28;20045;-78
2023/09/07 08:27:21;;;;;;;15.60;9.50;;;;;;;22.19;100.00;102052.16;5030483;28;20485;-79
2023/09/07 08:29:51;;;;;;;15.32;8.38;;;;;;;22.43;100.00;102049.41;5030851;28;20106;-80
2023/09/07 08:32:17;;;;;;;13.52;8.75;;;;;;;22.61;100.00;102052.53;5030926;28;20054;-80
2023/09/07 08:34:43;;;;;;;13.63;7.47;;;;;;;22.82;100.00;102042.75;5029297;28;20037;-79
2023/09/07 08:37:11;;;;;;;16.13;8.82;;;;;;;23.03;100.00;102039.22;5012584;28;20029;-79
2023/09/07 08:39:39;;;;;;;11.27;8.27;;;;;;;23.30;100.00;102034.94;5029023;28;20037;-80
2023/09/07 08:42:04;;;;;;;14.10;8.05;;;;;;;23.61;100.00;102033.72;5013316;28;20381;-80
2023/09/07 08:44:33;;;;;;;13.85;8.18;;;;;;;24.08;100.00;102037.66;5028701;28;20037;-81
2023/09/07 08:47:02;;;;;;;13.45;7.28;;;;;;;24.68;100.00;102033.53;5030561;28;20334;-80
2023/09/07 08:49:28;;;;;;;8.63;6.72;;;;;;;25.33;100.00;102029.31;5030650;28;20091;-80
2023/09/07 08:51:54;;;;;;;8.30;5.93;;;;;;;26.13;100.00;102022.09;5028710;28;20116;-81
2023/09/07 08:54:20;;;;;;;9.18;6.20;;;;;;;26.62;100.00;102023.38;5030606;28;20094;-80
2023/09/07 08:56:47;;;;;;;10.90;5.53;;;;;;;27.35;100.00;102026.72;5012361;28;20133;-79
2023/09/07 08:59:13;;;;;;;12.95;5.80;;;;;;;28.07;100.00;102023.53;5012333;28;20029;-80
2023/09/07 09:01:39;;;;;;;6.70;5.10;;;;;;;28.37;97.86;102018.09;5012772;28;20466;-80
2023/09/07 09:04:05;;;;;;;11.60;5.40;;;;;;;28.86;87.52;102020.84;5028640;28;20087;-80
2023/09/07 09:06:31;;;;;;;9.82;5.35;;;;;;;29.38;94.02;102009.31;5012281;28;20077;-80
2023/09/07 09:08:57;;;;;;;14.57;6.22;;;;;;;29.74;91.66;102010.13;5029075;28;20433;-81
2023/09/07 09:11:24;;;;;;;8.85;5.65;;;;;;;29.98;92.71;102010.97;5012535;28;20299;-80
2023/09/07 09:13:51;;;;;;;12.55;6.30;;;;;;;29.85;81.41;102012.03;5030287;28;20026;-88
2023/09/07 09:16:16;;;;;;;9.52;5.57;;;;;;;30.04;85.04;102017.41;5012088;28;20042;-80
2023/09/07 09:18:55;;;;;;;11.25;5.70;;;;;;;29.82;82.20;102018.00;5012634;28;20137;-79
2023/09/07 09:21:23;;;;;;;10.07;6.57;;;;;;;30.25;80.73;102024.16;5028641;28;20033;-79
2023/09/07 09:23:50;;;;;;;8.82;6.38;;;;;;;30.23;79.60;102020.78;5028600;28;20156;-80
2023/09/07 09:26:15;;;;;;;12.85;5.40;;;;;;;30.47;81.10;102018.84;5028694;28;20156;-80
2023/09/07 09:28:42;;;;;;;8.50;5.50;;;;;;;30.82;74.45;102020.59;5030122;28;20410;-79
2023/09/07 09:31:12;;;;;;;8.52;6.03;;;;;;;30.53;70.17;102019.75;5028321;28;20121;-80
2023/09/07 09:33:40;;;;;;;9.88;5.82;;;;;;;30.88;68.74;102027.84;5030500;28;20038;-80
2023/09/07 09:36:07;;;;;;;9.23;5.90;;;;;;;30.83;68.18;102029.66;5032245;28;20477;-79
2023/09/07 09:38:34;;;;;;;9.70;5.55;;;;;;;30.80;70.09;102024.66;5032452;28;20037;-79
2023/09/07 09:40:59;;;;;;;8.93;5.50;;;;;;;30.80;72.61;102014.53;5033764;28;20087;-80
2023/09/07 09:43:25;;;;;;;10.38;5.38;;;;;;;31.11;82.63;102020.56;5032169;28;20033;-79
2023/09/07 09:45:52;;;;;;;8.10;5.35;;;;;;;31.29;71.81;102016.72;5016330;28;20037;-79
2023/09/07 09:48:22;;;;;;;10.25;5.68;;;;;;;31.40;70.75;102018.56;5033795;28;20037;-80
2023/09/07 09:50:49;;;;;;;9.05;5.75;;;;;;;31.62;66.83;102021.41;5032927;28;20087;-80
2023/09/07 09:53:20;;;;;;;11.63;5.32;;;;;;;31.32;64.11;102018.16;5032102;28;20160;-80
2023/09/07 09:55:49;;;;;;;11.30;4.90;;;;;;;31.46;68.75;102019.50;5016264;28;20048;-80
2023/09/07 09:58:16;;;;;;;10.27;5.57;;;;;;;31.42;61.87;102013.66;5033965;28;20136;-79
2023/09/07 10:00:48;;;;;;;10.20;4.70;;;;;;;31.66;71.57;102012.66;5031813;28;20032;-77
2023/09/07 10:03:23;;;;;;;5.97;4.80;;;;;;;31.52;60.23;102003.91;5033549;28;20052;-80
2023/09/07 10:05:49;;;;;;;6.15;4.60;;;;;;;31.64;66.02;102012.91;5033177;28;20124;-80
2023/09/07 10:08:17;;;;;;;7.13;4.80;;;;;;;31.87;61.78;101997.25;5033325;28;20088;-80
2023/09/07 10:10:47;;;;;;;8.23;4.78;;;;;;;31.87;60.98;102008.25;5031909;28;20124;-79
2023/09/07 10:13:14;;;;;;;7.97;5.10;;;;;;;31.87;63.14;101997.25;5031726;28;20406;-79
2023/09/07 10:15:40;;;;;;;12.15;5.10;;;;;;;31.99;60.89;102004.31;5031766;28;20483;-79
2023/09/07 10:18:16;;;;;;;11.23;4.75;;;;;;;32.19;66.16;102002.94;5031606;28;20037;-81
2023/09/07 10:20:57;;;;;;;6.82;4.32;;;;;;;32.26;62.68;102002.72;5031661;28;20021;-80
2023/09/07 10:23:34;;;;;;;8.90;5.18;;;;;;;32.20;60.92;102001.81;5032071;28;20369;-80
2023/09/07 10:26:00;;;;;;;12.68;4.70;;;;;;;32.33;58.84;101995.91;5032790;28;20054;-82
2023/09/07 10:28:25;;;;;;;6.60;4.13;;;;;;;32.45;61.03;101987.50;5015070;28;20366;-80
2023/09/07 10:31:06;;;;;;;6.65;4.22;;;;;;;32.41;60.41;101999.31;5033068;28;20108;-81
2023/09/07 10:33:32;;;;;;;;;;;;;;;32.30;58.96;102001.13;5033179;28;20057;-80
2023/09/07 10:35:58;;;;;;;7.40;4.35;;;;;;;32.50;57.11;101995.00;5033259;28;20241;-80
2023/09/07 10:38:24;;;;;;;4.10;3.55;;;;;;;32.65;64.33;102003.44;5014837;28;20033;-80
2023/09/07 10:40:57;;;;;;;14.95;4.00;;;;;;;32.76;58.37;101990.63;5031315;28;20044;-80
2023/09/07 10:43:23;;;;;;;11.15;4.18;;;;;;;32.73;57.11;102002.16;5030892;28;20041;-80
2023/09/07 10:45:49;;;;;;;7.95;4.15;;;;;;;32.67;59.08;101992.19;5031262;28;20091;-80
2023/09/07 10:48:16;;;;;;;4.85;3.33;;;;;;;32.30;55.15;101990.94;5031183;28;20033;-82
2023/09/07 10:50:44;;;;;;;6.78;3.53;;;;;;;31.91;54.63;101993.75;5030781;28;20337;-82
2023/09/07 10:53:09;;;;;;;6.30;3.30;;;;;;;32.11;54.67;102003.38;5032197;28;20056;-80
2023/09/07 10:55:39;;;;;;;6.05;3.00;;;;;;;32.04;53.18;102000.78;5030912;28;20101;-80
2023/09/07 10:58:05;;;;;;;6.07;3.25;;;;;;;32.18;51.65;101990.25;5032820;28;20032;-81
2023/09/07 11:00:31;;;;;;;6.55;3.20;;;;;;;32.34;55.41;101988.50;5014399;28;20029;-80
2023/09/07 11:02:56;;;;;;;9.20;3.03;;;;;;;32.57;52.33;101978.28;5031192;28;20037;-80